sensor_id;sensor_type;location;lat;lon;timestamp;P1;durP1;ratioP1;P2;durP2;ratioP2
54599;SDS011;40500;51.084;16.958;2022-12-29T00:02:13;2.30;;;1.30;;
54599;SDS011;40500;51.084;16.958;2022-12-29T00:05:11;1.90;;;1.10;;
54599;SDS011;40500;51.084;16.958;2022-12-29T00:08:00;3.90;;;1.70;;
54599;SDS011;40500;51.084;16.958;2022-12-29T00:11:01;3.60;;;1.90;;
54599;SDS011;40500;51.084;16.958;2022-12-29T00:13:31;2.20;;;1.60;;
54599;SDS011;40500;51.084;16.958;2022-12-29T00:16:20;3.40;;;2.00;;
54599;SDS011;40500;51.084;16.958;2022-12-29T00:19:14;2.00;;;1.50;;
54599;SDS011;40500;51.084;16.958;2022-12-29T00:22:21;2.60;;;1.80;;
54599;SDS011;40500;51.084;16.958;2022-12-29T00:25:29;3.30;;;1.90;;
54599;SDS011;40500;51.084;16.958;2022-12-29T00:28:35;2.50;;;1.50;;
54599;SDS011;40500;51.084;16.958;2022-12-29T00:31:57;1.80;;;1.40;;
54599;SDS011;40500;51.084;16.958;2022-12-29T00:34:46;2.20;;;1.70;;
54599;SDS011;40500;51.084;16.958;2022-12-29T00:37:43;1.80;;;1.50;;
54599;SDS011;40500;51.084;16.958;2022-12-29T00:40:43;2.60;;;1.70;;
54599;SDS011;40500;51.084;16.958;2022-12-29T00:43:51;3.00;;;1.70;;
54599;SDS011;40500;51.084;16.958;2022-12-29T00:46:40;2.70;;;1.60;;
54599;SDS011;40500;51.084;16.958;2022-12-29T00:49:23;3.00;;;1.70;;
54599;SDS011;40500;51.084;16.958;2022-12-29T00:52:20;2.40;;;1.80;;
54599;SDS011;40500;51.084;16.958;2022-12-29T00:55:23;2.00;;;1.50;;
54599;SDS011;40500;51.084;16.958;2022-12-29T00:58:18;2.30;;;1.70;;
54599;SDS011;40500;51.084;16.958;2022-12-29T01:01:01;2.00;;;1.70;;
54599;SDS011;40500;51.084;16.958;2022-12-29T01:03:59;2.40;;;1.70;;
54599;SDS011;40500;51.084;16.958;2022-12-29T01:06:56;3.40;;;1.80;;
54599;SDS011;40500;51.084;16.958;2022-12-29T01:09:49;3.30;;;1.80;;
54599;SDS011;40500;51.084;16.958;2022-12-29T01:13:01;3.20;;;1.80;;
54599;SDS011;40500;51.084;16.958;2022-12-29T01:15:52;1.90;;;1.70;;
54599;SDS011;40500;51.084;16.958;2022-12-29T01:18:46;2.50;;;1.50;;
54599;SDS011;40500;51.084;16.958;2022-12-29T01:21:21;2.10;;;1.50;;
54599;SDS011;40500;51.084;16.958;2022-12-29T01:24:15;6.10;;;2.10;;
54599;SDS011;40500;51.084;16.958;2022-12-29T01:27:08;1.50;;;1.30;;
54599;SDS011;40500;51.084;16.958;2022-12-29T01:30:04;2.00;;;1.50;;
54599;SDS011;40500;51.084;16.958;2022-12-29T01:32:55;2.40;;;1.40;;
54599;SDS011;40500;51.084;16.958;2022-12-29T01:35:48;1.50;;;1.20;;
54599;SDS011;40500;51.084;16.958;2022-12-29T01:38:40;2.40;;;1.40;;
54599;SDS011;40500;51.084;16.958;2022-12-29T01:41:13;2.50;;;1.50;;
54599;SDS011;40500;51.084;16.958;2022-12-29T01:47:39;2.10;;;1.50;;
54599;SDS011;40500;51.084;16.958;2022-12-29T01:50:37;2.30;;;1.50;;
54599;SDS011;40500;51.084;16.958;2022-12-29T01:53:33;1.10;;;0.90;;
54599;SDS011;40500;51.084;16.958;2022-12-29T01:56:27;1.60;;;1.20;;
54599;SDS011;40500;51.084;16.958;2022-12-29T01:59:04;2.40;;;1.10;;
54599;SDS011;40500;51.084;16.958;2022-12-29T02:02:01;1.40;;;1.10;;
54599;SDS011;40500;51.084;16.958;2022-12-29T02:05:03;1.30;;;1.00;;
54599;SDS011;40500;51.084;16.958;2022-12-29T02:07:58;1.20;;;0.90;;
54599;SDS011;40500;51.084;16.958;2022-12-29T02:10:56;3.50;;;1.20;;
54599;SDS011;40500;51.084;16.958;2022-12-29T02:13:51;1.10;;;1.00;;
54599;SDS011;40500;51.084;16.958;2022-12-29T02:16:48;2.10;;;1.20;;
54599;SDS011;40500;51.084;16.958;2022-12-29T02:20:17;1.60;;;1.30;;
54599;SDS011;40500;51.084;16.958;2022-12-29T02:23:30;1.60;;;1.30;;
54599;SDS011;40500;51.084;16.958;2022-12-29T02:26:43;1.40;;;1.10;;
54599;SDS011;40500;51.084;16.958;2022-12-29T02:29:56;2.00;;;1.30;;
54599;SDS011;40500;51.084;16.958;2022-12-29T02:33:07;1.70;;;1.20;;
54599;SDS011;40500;51.084;16.958;2022-12-29T02:36:00;1.80;;;1.10;;
54599;SDS011;40500;51.084;16.958;2022-12-29T02:38:59;2.30;;;1.00;;
54599;SDS011;40500;51.084;16.958;2022-12-29T02:41:56;3.60;;;1.20;;
54599;SDS011;40500;51.084;16.958;2022-12-29T02:45:02;2.00;;;1.10;;
54599;SDS011;40500;51.084;16.958;2022-12-29T02:47:57;2.80;;;1.80;;
54599;SDS011;40500;51.084;16.958;2022-12-29T02:50:36;1.00;;;0.90;;
54599;SDS011;40500;51.084;16.958;2022-12-29T02:53:36;3.10;;;1.70;;
54599;SDS011;40500;51.084;16.958;2022-12-29T02:56:37;2.80;;;1.30;;
54599;SDS011;40500;51.084;16.958;2022-12-29T02:59:33;2.80;;;1.30;;
54599;SDS011;40500;51.084;16.958;2022-12-29T03:02:31;1.20;;;0.90;;
54599;SDS011;40500;51.084;16.958;2022-12-29T03:08:55;1.40;;;1.10;;
54599;SDS011;40500;51.084;16.958;2022-12-29T03:12:03;1.70;;;1.10;;
54599;SDS011;40500;51.084;16.958;2022-12-29T03:15:07;4.30;;;1.20;;
54599;SDS011;40500;51.084;16.958;2022-12-29T03:18:04;1.10;;;0.90;;
54599;SDS011;40500;51.084;16.958;2022-12-29T03:21:02;1.70;;;1.10;;
54599;SDS011;40500;51.084;16.958;2022-12-29T03:23:55;1.40;;;0.80;;
54599;SDS011;40500;51.084;16.958;2022-12-29T03:26:47;1.30;;;0.90;;
54599;SDS011;40500;51.084;16.958;2022-12-29T03:29:43;1.60;;;0.90;;
54599;SDS011;40500;51.084;16.958;2022-12-29T03:32:55;2.20;;;1.10;;
54599;SDS011;40500;51.084;16.958;2022-12-29T03:35:50;2.60;;;1.30;;
54599;SDS011;40500;51.084;16.958;2022-12-29T03:38:52;2.20;;;1.20;;
54599;SDS011;40500;51.084;16.958;2022-12-29T03:41:30;2.30;;;1.20;;
54599;SDS011;40500;51.084;16.958;2022-12-29T03:44:21;1.70;;;1.30;;
54599;SDS011;40500;51.084;16.958;2022-12-29T03:47:34;2.60;;;1.30;;
54599;SDS011;40500;51.084;16.958;2022-12-29T03:50:28;2.20;;;1.30;;
54599;SDS011;40500;51.084;16.958;2022-12-29T03:53:26;4.80;;;1.20;;
54599;SDS011;40500;51.084;16.958;2022-12-29T03:56:27;2.40;;;1.20;;
54599;SDS011;40500;51.084;16.958;2022-12-29T03:59:07;2.10;;;1.20;;
54599;SDS011;40500;51.084;16.958;2022-12-29T04:02:01;1.60;;;1.40;;
54599;SDS011;40500;51.084;16.958;2022-12-29T04:04:56;1.80;;;1.40;;
54599;SDS011;40500;51.084;16.958;2022-12-29T04:07:51;2.00;;;1.20;;
54599;SDS011;40500;51.084;16.958;2022-12-29T04:10:40;2.20;;;1.50;;
54599;SDS011;40500;51.084;16.958;2022-12-29T04:13:31;2.00;;;1.40;;
54599;SDS011;40500;51.084;16.958;2022-12-29T04:16:20;1.20;;;1.10;;
54599;SDS011;40500;51.084;16.958;2022-12-29T04:19:11;1.50;;;1.20;;
54599;SDS011;40500;51.084;16.958;2022-12-29T04:22:04;2.80;;;1.40;;
54599;SDS011;40500;51.084;16.958;2022-12-29T04:24:59;2.10;;;1.40;;
54599;SDS011;40500;51.084;16.958;2022-12-29T04:27:48;4.60;;;1.50;;
54599;SDS011;40500;51.084;16.958;2022-12-29T04:30:44;2.70;;;1.30;;
54599;SDS011;40500;51.084;16.958;2022-12-29T04:33:38;1.30;;;1.00;;
54599;SDS011;40500;51.084;16.958;2022-12-29T04:36:32;2.50;;;1.10;;
54599;SDS011;40500;51.084;16.958;2022-12-29T04:39:26;1.20;;;1.00;;
54599;SDS011;40500;51.084;16.958;2022-12-29T04:42:18;2.10;;;1.20;;
54599;SDS011;40500;51.084;16.958;2022-12-29T04:45:14;1.20;;;1.10;;
54599;SDS011;40500;51.084;16.958;2022-12-29T04:48:09;2.50;;;1.20;;
54599;SDS011;40500;51.084;16.958;2022-12-29T04:51:03;2.40;;;0.90;;
54599;SDS011;40500;51.084;16.958;2022-12-29T04:53:58;1.20;;;0.90;;
54599;SDS011;40500;51.084;16.958;2022-12-29T04:56:49;2.90;;;1.20;;
54599;SDS011;40500;51.084;16.958;2022-12-29T04:59:44;1.10;;;0.90;;
54599;SDS011;40500;51.084;16.958;2022-12-29T05:02:35;1.50;;;1.00;;
54599;SDS011;40500;51.084;16.958;2022-12-29T05:05:24;1.90;;;1.10;;
54599;SDS011;40500;51.084;16.958;2022-12-29T05:08:16;2.10;;;1.10;;
54599;SDS011;40500;51.084;16.958;2022-12-29T05:10:57;3.00;;;1.20;;
54599;SDS011;40500;51.084;16.958;2022-12-29T05:13:56;1.60;;;1.10;;
54599;SDS011;40500;51.084;16.958;2022-12-29T05:16:34;1.80;;;1.20;;
54599;SDS011;40500;51.084;16.958;2022-12-29T05:19:25;2.30;;;1.20;;
54599;SDS011;40500;51.084;16.958;2022-12-29T05:22:24;1.40;;;1.20;;
54599;SDS011;40500;51.084;16.958;2022-12-29T05:25:23;1.50;;;1.20;;
54599;SDS011;40500;51.084;16.958;2022-12-29T05:28:16;1.70;;;1.20;;
54599;SDS011;40500;51.084;16.958;2022-12-29T05:31:12;1.40;;;1.20;;
54599;SDS011;40500;51.084;16.958;2022-12-29T05:34:16;1.50;;;1.40;;
54599;SDS011;40500;51.084;16.958;2022-12-29T05:37:19;1.40;;;1.10;;
54599;SDS011;40500;51.084;16.958;2022-12-29T05:40:12;1.10;;;1.00;;
54599;SDS011;40500;51.084;16.958;2022-12-29T05:43:12;2.40;;;1.30;;
54599;SDS011;40500;51.084;16.958;2022-12-29T05:46:05;1.90;;;1.50;;
54599;SDS011;40500;51.084;16.958;2022-12-29T05:49:06;1.70;;;1.20;;
54599;SDS011;40500;51.084;16.958;2022-12-29T05:51:57;2.60;;;1.50;;
54599;SDS011;40500;51.084;16.958;2022-12-29T05:54:47;1.50;;;1.20;;
54599;SDS011;40500;51.084;16.958;2022-12-29T05:57:40;2.20;;;1.40;;
54599;SDS011;40500;51.084;16.958;2022-12-29T06:00:36;2.60;;;1.50;;
54599;SDS011;40500;51.084;16.958;2022-12-29T06:03:27;2.50;;;1.60;;
54599;SDS011;40500;51.084;16.958;2022-12-29T06:06:20;3.00;;;1.60;;
54599;SDS011;40500;51.084;16.958;2022-12-29T06:09:12;2.90;;;1.60;;
54599;SDS011;40500;51.084;16.958;2022-12-29T06:11:51;1.70;;;1.40;;
54599;SDS011;40500;51.084;16.958;2022-12-29T06:14:26;1.30;;;1.20;;
54599;SDS011;40500;51.084;16.958;2022-12-29T06:17:23;2.20;;;1.80;;
54599;SDS011;40500;51.084;16.958;2022-12-29T06:20:17;2.60;;;1.70;;
54599;SDS011;40500;51.084;16.958;2022-12-29T06:23:09;2.50;;;2.10;;
54599;SDS011;40500;51.084;16.958;2022-12-29T06:26:04;2.60;;;1.70;;
54599;SDS011;40500;51.084;16.958;2022-12-29T06:29:00;1.70;;;1.60;;
54599;SDS011;40500;51.084;16.958;2022-12-29T06:31:51;1.90;;;1.50;;
54599;SDS011;40500;51.084;16.958;2022-12-29T06:34:47;3.20;;;1.50;;
54599;SDS011;40500;51.084;16.958;2022-12-29T06:37:39;2.60;;;1.50;;
54599;SDS011;40500;51.084;16.958;2022-12-29T06:40:12;1.90;;;1.60;;
54599;SDS011;40500;51.084;16.958;2022-12-29T06:43:12;1.50;;;1.40;;
54599;SDS011;40500;51.084;16.958;2022-12-29T06:45:56;3.80;;;1.50;;
54599;SDS011;40500;51.084;16.958;2022-12-29T06:49:05;2.00;;;1.50;;
54599;SDS011;40500;51.084;16.958;2022-12-29T06:51:55;2.40;;;1.50;;
54599;SDS011;40500;51.084;16.958;2022-12-29T06:54:36;1.70;;;1.40;;
54599;SDS011;40500;51.084;16.958;2022-12-29T06:57:29;1.30;;;1.20;;
54599;SDS011;40500;51.084;16.958;2022-12-29T07:00:21;2.40;;;1.50;;
54599;SDS011;40500;51.084;16.958;2022-12-29T07:02:56;1.60;;;1.40;;
54599;SDS011;40500;51.084;16.958;2022-12-29T07:05:52;1.50;;;1.30;;
54599;SDS011;40500;51.084;16.958;2022-12-29T07:08:47;2.10;;;1.20;;
54599;SDS011;40500;51.084;16.958;2022-12-29T07:11:27;1.10;;;1.00;;
54599;SDS011;40500;51.084;16.958;2022-12-29T07:14:16;2.00;;;1.40;;
54599;SDS011;40500;51.084;16.958;2022-12-29T07:17:29;3.20;;;1.50;;
54599;SDS011;40500;51.084;16.958;2022-12-29T07:20:25;2.60;;;1.50;;
54599;SDS011;40500;51.084;16.958;2022-12-29T07:23:17;2.00;;;1.50;;
54599;SDS011;40500;51.084;16.958;2022-12-29T07:26:12;1.70;;;1.30;;
54599;SDS011;40500;51.084;16.958;2022-12-29T07:29:06;1.90;;;1.40;;
54599;SDS011;40500;51.084;16.958;2022-12-29T07:32:04;2.10;;;1.40;;
54599;SDS011;40500;51.084;16.958;2022-12-29T07:34:38;1.50;;;1.20;;
54599;SDS011;40500;51.084;16.958;2022-12-29T07:37:33;1.80;;;1.50;;
54599;SDS011;40500;51.084;16.958;2022-12-29T07:40:34;2.90;;;1.60;;
54599;SDS011;40500;51.084;16.958;2022-12-29T07:43:39;2.30;;;1.30;;
54599;SDS011;40500;51.084;16.958;2022-12-29T07:46:51;1.40;;;1.30;;
54599;SDS011;40500;51.084;16.958;2022-12-29T07:49:24;6.40;;;1.40;;
54599;SDS011;40500;51.084;16.958;2022-12-29T07:51:57;4.70;;;1.40;;
54599;SDS011;40500;51.084;16.958;2022-12-29T07:54:27;2.30;;;1.80;;
54599;SDS011;40500;51.084;16.958;2022-12-29T07:56:59;2.00;;;1.30;;
54599;SDS011;40500;51.084;16.958;2022-12-29T07:59:27;1.90;;;1.30;;
54599;SDS011;40500;51.084;16.958;2022-12-29T08:02:17;3.30;;;1.60;;
54599;SDS011;40500;51.084;16.958;2022-12-29T08:04:47;1.80;;;1.10;;
54599;SDS011;40500;51.084;16.958;2022-12-29T08:07:16;2.30;;;1.40;;
54599;SDS011;40500;51.084;16.958;2022-12-29T08:09:47;1.20;;;1.00;;
54599;SDS011;40500;51.084;16.958;2022-12-29T08:12:19;2.30;;;1.60;;
54599;SDS011;40500;51.084;16.958;2022-12-29T08:14:56;6.40;;;1.50;;
54599;SDS011;40500;51.084;16.958;2022-12-29T08:17:25;1.30;;;1.20;;
54599;SDS011;40500;51.084;16.958;2022-12-29T08:19:59;1.60;;;1.20;;
54599;SDS011;40500;51.084;16.958;2022-12-29T08:22:51;1.70;;;1.40;;
54599;SDS011;40500;51.084;16.958;2022-12-29T08:25:19;5.00;;;2.70;;
54599;SDS011;40500;51.084;16.958;2022-12-29T08:27:53;3.60;;;1.60;;
54599;SDS011;40500;51.084;16.958;2022-12-29T08:30:46;3.50;;;1.50;;
54599;SDS011;40500;51.084;16.958;2022-12-29T08:33:34;4.00;;;1.60;;
54599;SDS011;40500;51.084;16.958;2022-12-29T08:36:04;1.60;;;1.50;;
54599;SDS011;40500;51.084;16.958;2022-12-29T08:38:48;2.10;;;1.90;;
54599;SDS011;40500;51.084;16.958;2022-12-29T08:41:17;2.60;;;1.70;;
54599;SDS011;40500;51.084;16.958;2022-12-29T08:43:47;6.80;;;2.60;;
54599;SDS011;40500;51.084;16.958;2022-12-29T08:46:20;3.50;;;2.00;;
54599;SDS011;40500;51.084;16.958;2022-12-29T08:48:52;4.40;;;1.90;;
54599;SDS011;40500;51.084;16.958;2022-12-29T08:51:30;4.00;;;2.70;;
54599;SDS011;40500;51.084;16.958;2022-12-29T08:54:06;5.30;;;3.40;;
54599;SDS011;40500;51.084;16.958;2022-12-29T08:56:35;4.50;;;3.00;;
54599;SDS011;40500;51.084;16.958;2022-12-29T08:59:06;4.80;;;2.80;;
54599;SDS011;40500;51.084;16.958;2022-12-29T09:01:36;3.30;;;2.40;;
54599;SDS011;40500;51.084;16.958;2022-12-29T09:04:14;4.90;;;2.20;;
54599;SDS011;40500;51.084;16.958;2022-12-29T09:06:45;4.10;;;2.30;;
54599;SDS011;40500;51.084;16.958;2022-12-29T09:09:18;6.30;;;2.70;;
54599;SDS011;40500;51.084;16.958;2022-12-29T09:11:51;3.60;;;2.20;;
54599;SDS011;40500;51.084;16.958;2022-12-29T09:14:24;5.00;;;2.50;;
54599;SDS011;40500;51.084;16.958;2022-12-29T09:16:54;2.70;;;2.40;;
54599;SDS011;40500;51.084;16.958;2022-12-29T09:19:40;5.70;;;3.00;;
54599;SDS011;40500;51.084;16.958;2022-12-29T09:22:08;4.80;;;2.80;;
54599;SDS011;40500;51.084;16.958;2022-12-29T09:24:39;4.10;;;2.80;;
54599;SDS011;40500;51.084;16.958;2022-12-29T09:27:07;6.80;;;3.10;;
54599;SDS011;40500;51.084;16.958;2022-12-29T09:29:35;6.70;;;2.70;;
54599;SDS011;40500;51.084;16.958;2022-12-29T09:32:03;7.20;;;3.40;;
54599;SDS011;40500;51.084;16.958;2022-12-29T09:34:35;4.70;;;2.50;;
54599;SDS011;40500;51.084;16.958;2022-12-29T09:37:05;2.20;;;2.00;;
54599;SDS011;40500;51.084;16.958;2022-12-29T09:39:36;2.80;;;1.70;;
54599;SDS011;40500;51.084;16.958;2022-12-29T09:42:29;2.30;;;1.70;;
54599;SDS011;40500;51.084;16.958;2022-12-29T09:45:12;6.30;;;1.80;;
54599;SDS011;40500;51.084;16.958;2022-12-29T09:47:44;2.80;;;2.00;;
54599;SDS011;40500;51.084;16.958;2022-12-29T09:50:22;2.90;;;1.80;;
54599;SDS011;40500;51.084;16.958;2022-12-29T09:53:17;2.50;;;1.60;;
54599;SDS011;40500;51.084;16.958;2022-12-29T09:55:54;2.50;;;1.80;;
54599;SDS011;40500;51.084;16.958;2022-12-29T09:58:26;2.70;;;1.70;;
54599;SDS011;40500;51.084;16.958;2022-12-29T10:01:04;3.30;;;1.80;;
54599;SDS011;40500;51.084;16.958;2022-12-29T10:03:55;2.40;;;1.70;;
54599;SDS011;40500;51.084;16.958;2022-12-29T10:06:32;1.60;;;1.30;;
54599;SDS011;40500;51.084;16.958;2022-12-29T10:09:32;2.10;;;1.60;;
54599;SDS011;40500;51.084;16.958;2022-12-29T10:12:16;3.40;;;1.90;;
54599;SDS011;40500;51.084;16.958;2022-12-29T10:15:01;2.00;;;1.40;;
54599;SDS011;40500;51.084;16.958;2022-12-29T10:17:44;3.70;;;1.90;;
54599;SDS011;40500;51.084;16.958;2022-12-29T10:20:26;2.70;;;1.60;;
54599;SDS011;40500;51.084;16.958;2022-12-29T10:23:07;3.40;;;1.60;;
54599;SDS011;40500;51.084;16.958;2022-12-29T10:25:50;1.90;;;1.50;;
54599;SDS011;40500;51.084;16.958;2022-12-29T10:28:47;2.80;;;1.70;;
54599;SDS011;40500;51.084;16.958;2022-12-29T10:31:37;2.10;;;1.60;;
54599;SDS011;40500;51.084;16.958;2022-12-29T10:34:33;3.50;;;1.30;;
54599;SDS011;40500;51.084;16.958;2022-12-29T10:37:05;3.20;;;1.70;;
54599;SDS011;40500;51.084;16.958;2022-12-29T10:40:13;2.40;;;1.70;;
54599;SDS011;40500;51.084;16.958;2022-12-29T10:43:16;1.90;;;1.40;;
54599;SDS011;40500;51.084;16.958;2022-12-29T10:46:07;2.20;;;1.60;;
54599;SDS011;40500;51.084;16.958;2022-12-29T10:48:59;2.80;;;1.70;;
54599;SDS011;40500;51.084;16.958;2022-12-29T10:51:49;3.50;;;2.10;;
54599;SDS011;40500;51.084;16.958;2022-12-29T10:54:33;4.10;;;1.90;;
54599;SDS011;40500;51.084;16.958;2022-12-29T10:57:20;2.10;;;1.70;;
54599;SDS011;40500;51.084;16.958;2022-12-29T10:59:58;3.60;;;1.60;;
54599;SDS011;40500;51.084;16.958;2022-12-29T11:02:43;2.20;;;1.60;;
54599;SDS011;40500;51.084;16.958;2022-12-29T11:05:44;2.80;;;1.40;;
54599;SDS011;40500;51.084;16.958;2022-12-29T11:08:30;1.90;;;1.50;;
54599;SDS011;40500;51.084;16.958;2022-12-29T11:11:32;4.50;;;1.50;;
54599;SDS011;40500;51.084;16.958;2022-12-29T11:14:27;3.50;;;1.50;;
54599;SDS011;40500;51.084;16.958;2022-12-29T11:17:29;3.40;;;1.60;;
54599;SDS011;40500;51.084;16.958;2022-12-29T11:22:57;2.00;;;1.60;;
54599;SDS011;40500;51.084;16.958;2022-12-29T11:25:31;2.90;;;1.80;;
54599;SDS011;40500;51.084;16.958;2022-12-29T11:28:23;2.50;;;1.40;;
54599;SDS011;40500;51.084;16.958;2022-12-29T11:30:59;2.90;;;1.40;;
54599;SDS011;40500;51.084;16.958;2022-12-29T11:33:34;4.30;;;2.00;;
54599;SDS011;40500;51.084;16.958;2022-12-29T11:36:24;1.90;;;1.40;;
54599;SDS011;40500;51.084;16.958;2022-12-29T11:38:54;2.50;;;1.70;;
54599;SDS011;40500;51.084;16.958;2022-12-29T11:41:39;2.20;;;1.60;;
54599;SDS011;40500;51.084;16.958;2022-12-29T11:44:35;2.30;;;1.70;;
54599;SDS011;40500;51.084;16.958;2022-12-29T11:47:26;3.30;;;2.00;;
54599;SDS011;40500;51.084;16.958;2022-12-29T11:50:19;2.20;;;1.50;;
54599;SDS011;40500;51.084;16.958;2022-12-29T11:53:17;5.00;;;2.00;;
54599;SDS011;40500;51.084;16.958;2022-12-29T11:55:55;4.00;;;1.80;;
54599;SDS011;40500;51.084;16.958;2022-12-29T11:58:30;2.90;;;1.80;;
54599;SDS011;40500;51.084;16.958;2022-12-29T12:01:26;2.40;;;1.80;;
54599;SDS011;40500;51.084;16.958;2022-12-29T12:04:05;2.90;;;1.60;;
54599;SDS011;40500;51.084;16.958;2022-12-29T12:06:46;2.90;;;1.70;;
54599;SDS011;40500;51.084;16.958;2022-12-29T12:09:25;4.40;;;2.00;;
54599;SDS011;40500;51.084;16.958;2022-12-29T12:12:25;2.70;;;1.70;;
54599;SDS011;40500;51.084;16.958;2022-12-29T12:15:22;4.00;;;1.80;;
54599;SDS011;40500;51.084;16.958;2022-12-29T12:18:02;1.90;;;1.50;;
54599;SDS011;40500;51.084;16.958;2022-12-29T12:20:40;4.50;;;1.70;;
54599;SDS011;40500;51.084;16.958;2022-12-29T12:23:18;2.90;;;1.80;;
54599;SDS011;40500;51.084;16.958;2022-12-29T12:26:10;3.40;;;1.80;;
54599;SDS011;40500;51.084;16.958;2022-12-29T12:28:54;2.90;;;1.70;;
54599;SDS011;40500;51.084;16.958;2022-12-29T12:31:39;5.90;;;1.80;;
54599;SDS011;40500;51.084;16.958;2022-12-29T12:34:16;3.30;;;1.80;;
54599;SDS011;40500;51.084;16.958;2022-12-29T12:40:16;2.80;;;1.60;;
54599;SDS011;40500;51.084;16.958;2022-12-29T12:43:31;2.90;;;1.60;;
54599;SDS011;40500;51.084;16.958;2022-12-29T12:46:19;2.10;;;1.70;;
54599;SDS011;40500;51.084;16.958;2022-12-29T12:49:28;2.70;;;1.90;;
54599;SDS011;40500;51.084;16.958;2022-12-29T12:52:30;4.10;;;2.00;;
54599;SDS011;40500;51.084;16.958;2022-12-29T12:55:34;2.60;;;1.80;;
54599;SDS011;40500;51.084;16.958;2022-12-29T12:58:37;5.00;;;2.30;;
54599;SDS011;40500;51.084;16.958;2022-12-29T13:01:27;3.50;;;2.10;;
54599;SDS011;40500;51.084;16.958;2022-12-29T13:07:07;4.90;;;2.00;;
54599;SDS011;40500;51.084;16.958;2022-12-29T13:09:59;3.50;;;2.00;;
54599;SDS011;40500;51.084;16.958;2022-12-29T13:12:44;3.20;;;2.10;;
54599;SDS011;40500;51.084;16.958;2022-12-29T13:15:28;4.50;;;2.10;;
54599;SDS011;40500;51.084;16.958;2022-12-29T13:18:20;2.80;;;2.00;;
54599;SDS011;40500;51.084;16.958;2022-12-29T13:20:55;3.80;;;2.20;;
54599;SDS011;40500;51.084;16.958;2022-12-29T13:23:32;5.30;;;2.20;;
54599;SDS011;40500;51.084;16.958;2022-12-29T13:26:08;4.30;;;2.20;;
54599;SDS011;40500;51.084;16.958;2022-12-29T13:29:06;4.40;;;2.40;;
54599;SDS011;40500;51.084;16.958;2022-12-29T13:31:50;3.50;;;2.30;;
54599;SDS011;40500;51.084;16.958;2022-12-29T13:34:32;8.00;;;2.60;;
54599;SDS011;40500;51.084;16.958;2022-12-29T13:37:13;3.60;;;2.10;;
54599;SDS011;40500;51.084;16.958;2022-12-29T13:39:48;4.40;;;2.20;;
54599;SDS011;40500;51.084;16.958;2022-12-29T13:42:26;3.80;;;1.80;;
54599;SDS011;40500;51.084;16.958;2022-12-29T13:45:03;3.10;;;1.90;;
54599;SDS011;40500;51.084;16.958;2022-12-29T13:48:02;3.90;;;2.20;;
54599;SDS011;40500;51.084;16.958;2022-12-29T13:51:02;6.10;;;2.30;;
54599;SDS011;40500;51.084;16.958;2022-12-29T13:54:00;4.70;;;2.30;;
54599;SDS011;40500;51.084;16.958;2022-12-29T13:56:48;3.60;;;2.10;;
54599;SDS011;40500;51.084;16.958;2022-12-29T13:59:37;2.70;;;1.80;;
54599;SDS011;40500;51.084;16.958;2022-12-29T14:02:42;3.40;;;2.10;;
54599;SDS011;40500;51.084;16.958;2022-12-29T14:05:31;7.30;;;2.30;;
54599;SDS011;40500;51.084;16.958;2022-12-29T14:08:04;6.40;;;2.30;;
54599;SDS011;40500;51.084;16.958;2022-12-29T14:10:46;5.30;;;2.50;;
54599;SDS011;40500;51.084;16.958;2022-12-29T14:13:22;4.50;;;2.30;;
54599;SDS011;40500;51.084;16.958;2022-12-29T14:16:04;3.10;;;1.90;;
54599;SDS011;40500;51.084;16.958;2022-12-29T14:19:08;4.70;;;2.60;;
54599;SDS011;40500;51.084;16.958;2022-12-29T14:22:06;3.40;;;2.30;;
54599;SDS011;40500;51.084;16.958;2022-12-29T14:25:11;5.30;;;3.10;;
54599;SDS011;40500;51.084;16.958;2022-12-29T14:28:19;5.50;;;2.50;;
54599;SDS011;40500;51.084;16.958;2022-12-29T14:31:35;3.70;;;2.30;;
54599;SDS011;40500;51.084;16.958;2022-12-29T14:34:29;4.80;;;3.00;;
54599;SDS011;40500;51.084;16.958;2022-12-29T14:37:15;4.30;;;2.90;;
54599;SDS011;40500;51.084;16.958;2022-12-29T14:40:15;4.40;;;3.10;;
54599;SDS011;40500;51.084;16.958;2022-12-29T14:43:17;6.90;;;3.60;;
54599;SDS011;40500;51.084;16.958;2022-12-29T14:45:52;4.60;;;3.10;;
54599;SDS011;40500;51.084;16.958;2022-12-29T14:48:37;8.70;;;3.50;;
54599;SDS011;40500;51.084;16.958;2022-12-29T14:51:27;6.80;;;4.20;;
54599;SDS011;40500;51.084;16.958;2022-12-29T14:54:40;6.80;;;4.30;;
54599;SDS011;40500;51.084;16.958;2022-12-29T14:57:27;7.00;;;4.10;;
54599;SDS011;40500;51.084;16.958;2022-12-29T15:00:21;7.00;;;4.00;;
54599;SDS011;40500;51.084;16.958;2022-12-29T15:03:02;7.60;;;4.90;;
54599;SDS011;40500;51.084;16.958;2022-12-29T15:05:36;6.90;;;4.00;;
54599;SDS011;40500;51.084;16.958;2022-12-29T15:08:13;7.80;;;4.00;;
54599;SDS011;40500;51.084;16.958;2022-12-29T15:10:48;10.90;;;4.30;;
54599;SDS011;40500;51.084;16.958;2022-12-29T15:13:23;7.10;;;4.50;;
54599;SDS011;40500;51.084;16.958;2022-12-29T15:16:25;8.90;;;4.80;;
54599;SDS011;40500;51.084;16.958;2022-12-29T15:19:21;7.80;;;4.60;;
54599;SDS011;40500;51.084;16.958;2022-12-29T15:22:10;6.40;;;3.70;;
54599;SDS011;40500;51.084;16.958;2022-12-29T15:24:41;7.30;;;4.40;;
54599;SDS011;40500;51.084;16.958;2022-12-29T15:27:18;11.10;;;4.60;;
54599;SDS011;40500;51.084;16.958;2022-12-29T15:29:58;11.40;;;4.40;;
54599;SDS011;40500;51.084;16.958;2022-12-29T15:32:44;7.60;;;3.80;;
54599;SDS011;40500;51.084;16.958;2022-12-29T15:35:25;8.00;;;5.00;;
54599;SDS011;40500;51.084;16.958;2022-12-29T15:37:59;10.50;;;5.20;;
54599;SDS011;40500;51.084;16.958;2022-12-29T15:41:02;10.60;;;4.90;;
54599;SDS011;40500;51.084;16.958;2022-12-29T15:44:02;7.00;;;4.30;;
54599;SDS011;40500;51.084;16.958;2022-12-29T15:47:21;10.00;;;4.90;;
54599;SDS011;40500;51.084;16.958;2022-12-29T15:50:27;8.20;;;5.00;;
54599;SDS011;40500;51.084;16.958;2022-12-29T15:53:37;7.60;;;4.70;;
54599;SDS011;40500;51.084;16.958;2022-12-29T15:56:16;11.30;;;5.70;;
54599;SDS011;40500;51.084;16.958;2022-12-29T15:59:17;8.10;;;5.00;;
54599;SDS011;40500;51.084;16.958;2022-12-29T16:02:25;9.10;;;5.00;;
54599;SDS011;40500;51.084;16.958;2022-12-29T16:04:58;11.40;;;5.00;;
54599;SDS011;40500;51.084;16.958;2022-12-29T16:08:20;8.30;;;5.20;;
54599;SDS011;40500;51.084;16.958;2022-12-29T16:11:07;9.20;;;5.40;;
54599;SDS011;40500;51.084;16.958;2022-12-29T16:13:50;9.60;;;5.90;;
54599;SDS011;40500;51.084;16.958;2022-12-29T16:16:50;8.50;;;5.40;;
54599;SDS011;40500;51.084;16.958;2022-12-29T16:19:49;13.00;;;5.20;;
54599;SDS011;40500;51.084;16.958;2022-12-29T16:22:48;10.90;;;5.80;;
54599;SDS011;40500;51.084;16.958;2022-12-29T16:25:46;11.50;;;5.40;;
54599;SDS011;40500;51.084;16.958;2022-12-29T16:28:35;8.70;;;5.40;;
54599;SDS011;40500;51.084;16.958;2022-12-29T16:31:33;15.20;;;7.10;;
54599;SDS011;40500;51.084;16.958;2022-12-29T16:34:43;12.00;;;6.50;;
54599;SDS011;40500;51.084;16.958;2022-12-29T16:37:34;12.10;;;6.00;;
54599;SDS011;40500;51.084;16.958;2022-12-29T16:40:24;11.80;;;6.10;;
54599;SDS011;40500;51.084;16.958;2022-12-29T16:43:02;11.00;;;6.10;;
54599;SDS011;40500;51.084;16.958;2022-12-29T16:48:52;8.70;;;5.60;;
54599;SDS011;40500;51.084;16.958;2022-12-29T16:51:31;10.40;;;5.60;;
54599;SDS011;40500;51.084;16.958;2022-12-29T16:54:13;10.10;;;6.20;;
54599;SDS011;40500;51.084;16.958;2022-12-29T16:57:04;9.90;;;5.80;;
54599;SDS011;40500;51.084;16.958;2022-12-29T16:59:36;10.50;;;5.50;;
54599;SDS011;40500;51.084;16.958;2022-12-29T17:02:15;9.80;;;6.10;;
54599;SDS011;40500;51.084;16.958;2022-12-29T17:04:58;8.10;;;5.30;;